Rejestracja

Wszystkie dane podawane są w czasie UTC za wyjątkiem miejsc gdzie jest jednoznacznie podane, że jest inaczej. Dane podawane w serwisie mają charakter informacyjny!!!
Informacje w sprawie dostępu do serwisu pod numerem tel. +48 261-828-559 lub +48 261-828-138
Informacja dla żołnierzy i pracowników wojska: Prosimy o niezwłoczną zmianę adresu e-mail w profilu użytkownika na pocztę w domenie @ron.mil.pl
Brak służbowego adresu e-mail skutkuje usunięciem konta.

Aktualna Pogoda
 
Pogoda w Polsce
18°C Szczecin 17°C Suwałki 20°C Warszawa 18°C Poznan
18°C Opole 18°C Kraków 18°C Rzeszów
Więcej miast w Polsce

Pogoda w Europie
20°C Berlin 17°C Paryz 17°C Bruksela 19°C Oslo
18°C Praga 20°C Zagrzeb
Więcej miast w Europie

Metary wojskowe test
METAR EPCE 260200Z 10003KT 9999 SCT200 17/15 Q1013 RMK 171 088 3/3=
METAR EPDA 260100Z 11005KT 9999 BKN165 18/16 Q1012 RMK 183 086 7/7=
METAR EPDE 260200Z 08006KT CAVOK 18/15 Q1013 RMK 182 082 4/4=
METAR EPIR 260200Z AUTO 06008KT 17/14 Q1012 RMK 167 086 ///=
METAR EPKS 260200Z AUTO VRB02KT 9999 NCD 16/16 Q1011 RMK 164 097 ///=
METAR EPLK 260200Z 09005KT 9999 FEW050 SCT080 BKN200 19/15 Q1011 RMK 185 078 5/1=
METAR EPLY 260200Z AUTO 09004KT 19/14 Q1011 RMK 187 074 ///=
METAR EPMB 260200Z 08004KT CAVOK 17/14 Q1012 RMK 168 082 2/2=
METAR EPMI 260200Z 09003KT CAVOK 18/15 Q1012 RMK 179 084 5/5=
METAR EPMM 260200Z 12009KT 9999 -RA SCT025 BKN080 19/16 Q1014 RMK 193 080 7/4=
METAR EPOK 260200Z 15004KT 9999 SCT150 BKN210 20/16 Q1013 RMK 203 076 5/3=
METAR EPPR 260200Z AUTO 00000KT VV147 17/14 Q1013 RMK 171 084 ///=
METAR EPPW 260200Z 09006KT CAVOK 18/15 Q1011 RMK 183 083 0/0=
METAR EPSN 260200Z VRB02KT 9999 SCT130 18/16 Q1012 RMK 177 089 4/4=
METAR EPTM 260200Z AUTO 11006KT VV066 18/15 Q1012 RMK 184 080 ///=


 

Prawa autorskie©2007 SSH SZ RP. Wszelkie prawa zastrzeżone.